Time;durP1;ratioP1;P1;durP2;ratioP2;P2;SDS_P1;SDS_P2;PMS_P1;PMS_P2;Temp;Humidity;BMP_temperature;BMP_pressure;BME280_temperature;BME280_humidity;BME280_pressure;Samples;Min_cycle;Max_cycle;Signal;HPM_P1;HPM_P2
2021/06/23 00:00:21;;;;;;;6.55;5.03;;;;;;;;;;5125358;28;20040;-79
2021/06/23 00:02:49;;;;;;;7.93;5.05;;;;;;;;;;5122269;28;20127;-78
2021/06/23 00:05:16;;;;;;;6.38;4.88;;;;;;;;;;5122560;28;20052;-79
2021/06/23 00:07:44;;;;;;;7.30;5.90;;;;;;;;;;5127719;28;20055;-78
2021/06/23 00:10:12;;;;;;;7.05;5.10;;;;;;;;;;5127534;28;20047;-79
2021/06/23 00:12:42;;;;;;;6.45;4.68;;;;;;;;;;5128345;28;20380;-79
2021/06/23 00:15:11;;;;;;;5.90;4.32;;;;;;;;;;5128503;28;20043;-79
2021/06/23 00:17:39;;;;;;;6.10;3.90;;;;;;;;;;5129339;28;20358;-79
2021/06/23 00:20:07;;;;;;;5.93;4.22;;;;;;;;;;5127391;27;20040;-78
2021/06/23 00:22:34;;;;;;;5.55;3.70;;;;;;;;;;5122970;28;20048;-78
2021/06/23 00:25:01;;;;;;;6.18;3.85;;;;;;;;;;5123351;28;20048;-78
2021/06/23 00:27:28;;;;;;;5.72;3.70;;;;;;;;;;5123039;28;20089;-78
2021/06/23 00:29:55;;;;;;;5.25;3.85;;;;;;;;;;5123253;28;20047;-78
2021/06/23 00:32:22;;;;;;;4.57;2.97;;;;;;;;;;5123083;28;20048;-78
2021/06/23 00:34:50;;;;;;;4.50;3.00;;;;;;;;;;5123094;27;20051;-78
2021/06/23 00:37:17;;;;;;;4.93;2.85;;;;;;;;;;5121765;28;20043;-79
2021/06/23 00:39:43;;;;;;;3.90;2.50;;;;;;;;;;5122142;28;20569;-79
2021/06/23 00:42:11;;;;;;;4.93;2.42;;;;;;;;;;5120567;28;20040;-78
2021/06/23 00:44:40;;;;;;;6.18;2.70;;;;;;;;;;5121408;28;20043;-78
2021/06/23 00:47:07;;;;;;;3.72;2.50;;;;;;;;;;5121165;28;20365;-79
2021/06/23 00:49:34;;;;;;;3.92;2.40;;;;;;;;;;5121635;28;20104;-78
2021/06/23 00:52:03;;;;;;;3.92;2.28;;;;;;;;;;5121198;28;20040;-79
2021/06/23 00:54:30;;;;;;;5.47;2.78;;;;;;;;;;5120874;28;20044;-78
2021/06/23 00:56:57;;;;;;;4.35;2.90;;;;;;;;;;5100239;22;20052;-79
2021/06/23 00:59:25;;;;;;;4.20;3.17;;;;;;;;;;5054363;28;20063;-77
2021/06/23 01:01:52;;;;;;;6.45;4.10;;;;;;;;;;5053229;28;20494;-77
2021/06/23 01:04:20;;;;;;;5.20;3.70;;;;;;;;;;5054015;28;20053;-77
2021/06/23 01:06:47;;;;;;;5.55;3.65;;;;;;;;;;5062601;28;20059;-77
2021/06/23 01:09:16;;;;;;;6.15;4.32;;;;;;;;;;5073797;28;20044;-77
2021/06/23 01:11:57;;;;;;;6.85;3.83;;;;;;;;;;5073138;28;20097;-77
2021/06/23 01:14:25;;;;;;;6.20;4.40;;;;;;;;;;5073715;28;20412;-77
2021/06/23 01:16:53;;;;;;;6.28;4.10;;;;;;;;;;5074022;28;20048;-77
2021/06/23 01:19:25;;;;;;;5.35;3.97;;;;;;;;;;5073762;28;20048;-77
2021/06/23 01:21:53;;;;;;;9.02;5.53;;;;;;;;;;5073115;28;20048;-77
2021/06/23 01:24:20;;;;;;;8.23;6.00;;;;;;;;;;5073587;28;20055;-77
2021/06/23 01:26:47;;;;;;;7.05;6.10;;;;;;;;;;5073731;28;20106;-77
2021/06/23 01:29:13;;;;;;;9.02;6.95;;;;;;;;;;5073650;28;20443;-77
2021/06/23 01:31:40;;;;;;;8.45;6.97;;;;;;;;;;5072625;28;20177;-77
2021/06/23 01:34:07;;;;;;;9.50;7.78;;;;;;;;;;5073366;28;20390;-77
2021/06/23 01:36:34;;;;;;;9.77;7.72;;;;;;;;;;5073278;28;20440;-77
2021/06/23 01:39:02;;;;;;;10.52;8.07;;;;;;;;;;5073311;28;20383;-77
2021/06/23 01:41:29;;;;;;;9.98;8.32;;;;;;;;;;5072518;28;20040;-77
2021/06/23 01:43:56;;;;;;;11.57;9.23;;;;;;;;;;5073241;28;20489;-77
2021/06/23 01:46:23;;;;;;;10.77;9.10;;;;;;;;;;5073005;28;20060;-77
2021/06/23 01:48:49;;;;;;;10.55;8.63;;;;;;;;;;5073109;28;20118;-77
2021/06/23 01:51:16;;;;;;;11.52;9.40;;;;;;;;;;5072281;28;20049;-77
2021/06/23 01:53:43;;;;;;;10.82;9.07;;;;;;;;;;5073232;28;20045;-77
2021/06/23 01:56:11;;;;;;;11.88;9.48;;;;;;;;;;5072837;28;20075;-77
2021/06/23 01:58:39;;;;;;;10.00;8.60;;;;;;;;;;5073235;28;20048;-77
2021/06/23 02:01:14;;;;;;;10.98;9.07;;;;;;;;;;5072638;28;20049;-77
2021/06/23 02:03:53;;;;;;;10.95;9.55;;;;;;;;;;5073395;28;20059;-77
2021/06/23 02:06:40;;;;;;;10.60;9.13;;;;;;;;;;5073339;28;20052;-77
2021/06/23 02:09:18;;;;;;;11.73;9.75;;;;;;;;;;5073076;28;20113;-77
2021/06/23 02:11:47;;;;;;;10.25;8.65;;;;;;;;;;5072025;28;20048;-77
2021/06/23 02:14:38;;;;;;;11.77;8.40;;;;;;;;;;5073076;28;20128;-77
2021/06/23 02:17:08;;;;;;;10.80;9.38;;;;;;;;;;5068960;28;20398;-77
2021/06/23 02:19:43;;;;;;;11.07;8.80;;;;;;;;;;5073013;28;20052;-77
2021/06/23 02:22:12;;;;;;;11.30;9.70;;;;;;;;;;5071344;28;20052;-77
2021/06/23 02:24:39;;;;;;;11.27;9.38;;;;;;;;;;5072829;28;20118;-77
2021/06/23 02:27:08;;;;;;;11.55;9.18;;;;;;;;;;5072523;28;20052;-77
2021/06/23 02:29:36;;;;;;;11.38;10.10;;;;;;;;;;5072514;28;20078;-77
2021/06/23 02:32:04;;;;;;;13.18;11.10;;;;;;;;;;5071731;28;20048;-77
2021/06/23 02:34:32;;;;;;;11.80;10.38;;;;;;;;;;5072379;28;20040;-77
2021/06/23 02:36:59;;;;;;;9.25;8.18;;;;;;;;;;5072280;28;20040;-77
2021/06/23 02:39:26;;;;;;;10.32;8.73;;;;;;;;;;5072308;28;20101;-77
2021/06/23 02:41:54;;;;;;;10.13;8.90;;;;;;;;;;5071600;28;20048;-77
2021/06/23 02:44:22;;;;;;;11.25;9.10;;;;;;;;;;5072356;28;20519;-77
2021/06/23 02:46:49;;;;;;;10.50;8.18;;;;;;;;;;5072282;28;20041;-77
2021/06/23 02:49:15;;;;;;;10.55;8.88;;;;;;;;;;5072315;28;20494;-76
2021/06/23 02:51:43;;;;;;;11.50;9.35;;;;;;;;;;5071595;28;20074;-76
2021/06/23 02:54:10;;;;;;;11.40;9.85;;;;;;;;;;5072115;28;20044;-76
2021/06/23 02:56:37;;;;;;;11.75;9.10;;;;;;;;;;5072157;28;20063;-76
2021/06/23 02:59:05;;;;;;;10.25;9.15;;;;;;;;;;5072257;28;20425;-76
2021/06/23 03:01:33;;;;;;;10.05;8.57;;;;;;;;;;5071396;28;20045;-75
2021/06/23 03:04:00;;;;;;;11.38;9.15;;;;;;;;;;5072002;28;20049;-76
2021/06/23 03:06:26;;;;;;;14.50;10.88;;;;;;;;;;5072017;28;20117;-76
2021/06/23 03:08:53;;;;;;;13.50;9.07;;;;;;;;;;5072156;28;20049;-75
2021/06/23 03:11:20;;;;;;;12.18;8.75;;;;;;;;;;5071910;28;20071;-76
2021/06/23 03:13:47;;;;;;;10.95;8.82;;;;;;;;;;5072247;28;20045;-76
2021/06/23 03:16:14;;;;;;;12.35;9.35;;;;;;;;;;5071933;28;20045;-76
2021/06/23 03:18:42;;;;;;;10.88;8.98;;;;;;;;;;5071889;28;20493;-76
2021/06/23 03:21:10;;;;;;;11.90;9.15;;;;;;;;;;5071267;28;20086;-76
2021/06/23 03:23:37;;;;;;;12.73;9.93;;;;;;;;;;5071548;28;20052;-76
2021/06/23 03:26:04;;;;;;;11.10;9.13;;;;;;;;;;5071975;28;20055;-75
2021/06/23 03:28:30;;;;;;;11.30;9.25;;;;;;;;;;5071711;28;20126;-76
2021/06/23 03:30:57;;;;;;;12.80;9.38;;;;;;;;;;5071467;28;20040;-76
2021/06/23 03:33:24;;;;;;;12.88;9.88;;;;;;;;;;5074497;28;20106;-76
2021/06/23 03:35:52;;;;;;;12.77;10.15;;;;;;;;;;5075729;28;20094;-76
2021/06/23 03:38:19;;;;;;;10.30;8.57;;;;;;;;;;5075805;28;20094;-76
2021/06/23 03:40:46;;;;;;;10.85;9.43;;;;;;;;;;5075757;28;20048;-76
2021/06/23 03:43:12;;;;;;;11.18;9.63;;;;;;;;;;5075734;28;20044;-76
2021/06/23 03:45:39;;;;;;;10.45;9.35;;;;;;;;;;5075542;28;20060;-76
2021/06/23 03:48:07;;;;;;;10.60;9.13;;;;;;;;;;5075669;28;20110;-76
2021/06/23 03:50:34;;;;;;;11.60;9.63;;;;;;;;;;5074835;28;20053;-76
2021/06/23 03:53:03;;;;;;;11.25;9.05;;;;;;;;;;5075442;28;20044;-76
2021/06/23 03:55:29;;;;;;;11.70;8.77;;;;;;;;;;5075347;28;20493;-76
2021/06/23 03:57:58;;;;;;;11.82;9.40;;;;;;;;;;5075134;28;20102;-75
2021/06/23 04:00:26;;;;;;;12.40;9.45;;;;;;;;;;5075316;28;20098;-76
2021/06/23 04:02:53;;;;;;;11.32;9.80;;;;;;;;;;5075206;28;20057;-76
2021/06/23 04:05:20;;;;;;;9.73;8.70;;;;;;;;;;5075213;28;20559;-76
2021/06/23 04:07:47;;;;;;;11.30;9.55;;;;;;;;;;5075301;28;20060;-76
2021/06/23 04:10:17;;;;;;;10.38;8.52;;;;;;;;;;5075143;28;20135;-76
2021/06/23 04:12:44;;;;;;;14.93;9.88;;;;;;;;;;5074628;28;20048;-76
2021/06/23 04:15:13;;;;;;;12.23;9.80;;;;;;;;;;5074966;28;20444;-76
2021/06/23 04:17:40;;;;;;;12.00;10.15;;;;;;;;;;5075025;28;20094;-76
2021/06/23 04:20:09;;;;;;;11.40;9.88;;;;;;;;;;5075213;28;20044;-76
2021/06/23 04:22:36;;;;;;;11.55;10.35;;;;;;;;;;5075135;28;20049;-77
2021/06/23 04:25:04;;;;;;;11.23;9.45;;;;;;;;;;5075350;28;20056;-77
2021/06/23 04:27:32;;;;;;;11.05;9.90;;;;;;;;;;5075315;28;20430;-77
2021/06/23 04:29:59;;;;;;;11.63;9.68;;;;;;;;;;5075754;28;20049;-77
2021/06/23 04:32:25;;;;;;;13.02;10.45;;;;;;;;;;5074246;28;20044;-77
2021/06/23 04:34:52;;;;;;;11.10;9.90;;;;;;;;;;5074677;28;20452;-77
2021/06/23 04:37:19;;;;;;;12.25;10.52;;;;;;;;;;5074736;28;20053;-77
2021/06/23 04:39:46;;;;;;;12.98;10.82;;;;;;;;;;5074551;28;20569;-76
2021/06/23 04:42:13;;;;;;;11.85;10.50;;;;;;;;;;5073953;28;20053;-77
2021/06/23 04:44:41;;;;;;;10.88;9.70;;;;;;;;;;5074130;28;20076;-77
2021/06/23 04:47:07;;;;;;;11.60;9.82;;;;;;;;;;5074674;28;20086;-77
2021/06/23 04:49:34;;;;;;;13.90;10.68;;;;;;;;;;5074627;28;20052;-77
2021/06/23 04:52:01;;;;;;;12.02;10.48;;;;;;;;;;5073408;28;20052;-77
2021/06/23 04:54:28;;;;;;;13.52;11.57;;;;;;;;;;5073992;28;20044;-76
2021/06/23 04:56:54;;;;;;;16.05;12.32;;;;;;;;;;5073858;28;20102;-76
2021/06/23 04:59:21;;;;;;;14.02;11.50;;;;;;;;;;5073897;28;20048;-76
2021/06/23 05:01:49;;;;;;;13.65;11.10;;;;;;;;;;5073569;28;20082;-76
2021/06/23 05:04:16;;;;;;;12.88;10.90;;;;;;;;;;5074219;28;20106;-77
2021/06/23 05:06:42;;;;;;;12.93;10.85;;;;;;;;;;5073952;28;20057;-77
2021/06/23 05:09:09;;;;;;;12.98;11.52;;;;;;;;;;5073851;28;20044;-77
2021/06/23 05:11:36;;;;;;;11.95;10.65;;;;;;;;;;5073236;28;20090;-77
2021/06/23 05:14:05;;;;;;;12.75;10.77;;;;;;;;;;5073494;28;20056;-76
2021/06/23 05:16:32;;;;;;;13.80;11.75;;;;;;;;;;5073951;28;20055;-77
2021/06/23 05:19:01;;;;;;;14.05;11.90;;;;;;;;;;5074136;28;20471;-77
2021/06/23 05:21:27;;;;;;;12.85;10.43;;;;;;;;;;5073045;28;20049;-77
2021/06/23 05:23:54;;;;;;;13.40;11.18;;;;;;;;;;5074435;28;20109;-77
2021/06/23 05:26:21;;;;;;;12.95;11.13;;;;;;;;;;5073846;28;20045;-77
2021/06/23 05:28:48;;;;;;;14.77;11.85;;;;;;;;;;5073380;28;20070;-76
2021/06/23 05:31:15;;;;;;;13.93;11.80;;;;;;;;;;5073130;28;20044;-77
2021/06/23 05:33:41;;;;;;;14.05;11.05;;;;;;;;;;5073093;28;20044;-77
2021/06/23 05:36:09;;;;;;;15.23;12.32;;;;;;;;;;5073281;28;20045;-77
2021/06/23 05:38:36;;;;;;;13.32;11.85;;;;;;;;;;5073253;28;20048;-76
2021/06/23 05:41:03;;;;;;;13.48;11.93;;;;;;;;;;5072590;28;20056;-77
2021/06/23 05:43:30;;;;;;;13.90;11.43;;;;;;;;;;5073470;28;20052;-76
2021/06/23 05:45:57;;;;;;;15.02;10.93;;;;;;;;;;5073478;28;20048;-76
2021/06/23 05:48:24;;;;;;;13.80;11.48;;;;;;;;;;5073252;28;20098;-77
2021/06/23 05:50:51;;;;;;;13.75;12.00;;;;;;;;;;5072286;28;20048;-77
2021/06/23 05:53:19;;;;;;;15.40;13.15;;;;;;;;;;5072982;28;20049;-77
2021/06/23 05:55:45;;;;;;;14.80;12.02;;;;;;;;;;5072437;28;20048;-76
2021/06/23 05:58:12;;;;;;;13.75;11.50;;;;;;;;;;5073574;28;20102;-76
2021/06/23 06:00:39;;;;;;;18.10;13.57;;;;;;;;;;5072092;28;20486;-76
2021/06/23 06:03:07;;;;;;;13.00;10.50;;;;;;;;;;5073454;28;20056;-77
2021/06/23 06:05:34;;;;;;;13.82;11.27;;;;;;;;;;5073007;28;20559;-76
2021/06/23 06:08:01;;;;;;;12.70;11.10;;;;;;;;;;5073070;28;20476;-76
2021/06/23 06:10:29;;;;;;;13.75;11.77;;;;;;;;;;5072446;28;20044;-75
2021/06/23 06:12:56;;;;;;;13.55;11.10;;;;;;;;;;5072925;28;20499;-76
2021/06/23 06:15:23;;;;;;;14.57;12.73;;;;;;;;;;5072968;28;20094;-76
2021/06/23 06:17:49;;;;;;;15.70;12.85;;;;;;;;;;5072773;28;20044;-75
2021/06/23 06:20:16;;;;;;;18.40;15.55;;;;;;;;;;5072906;28;20494;-77
2021/06/23 06:22:43;;;;;;;15.73;12.98;;;;;;;;;;5072293;28;20192;-76
2021/06/23 06:25:11;;;;;;;13.25;11.85;;;;;;;;;;5072557;28;20456;-76
2021/06/23 06:27:39;;;;;;;18.08;14.93;;;;;;;;;;5072419;28;20512;-76
2021/06/23 06:30:07;;;;;;;12.52;11.18;;;;;;;;;;5072852;28;20048;-77
2021/06/23 06:32:34;;;;;;;14.85;11.02;;;;;;;;;;5072407;28;20045;-77
2021/06/23 06:35:00;;;;;;;11.63;9.77;;;;;;;;;;5073938;28;20041;-76
2021/06/23 06:37:27;;;;;;;10.93;9.75;;;;;;;;;;5074931;28;20045;-76
2021/06/23 06:39:54;;;;;;;12.27;9.57;;;;;;;;;;5075216;28;20044;-77
2021/06/23 06:42:21;;;;;;;12.32;9.95;;;;;;;;;;5073789;28;20139;-76
2021/06/23 06:44:49;;;;;;;10.82;9.52;;;;;;;;;;5074325;28;20048;-76
2021/06/23 06:47:16;;;;;;;12.15;10.38;;;;;;;;;;5074441;28;20041;-77
2021/06/23 06:49:43;;;;;;;12.35;10.20;;;;;;;;;;5074085;28;20501;-76
2021/06/23 06:52:10;;;;;;;12.98;10.45;;;;;;;;;;5074052;28;20044;-76
2021/06/23 06:54:37;;;;;;;13.65;11.25;;;;;;;;;;5074174;28;20045;-77
2021/06/23 06:57:04;;;;;;;15.18;12.77;;;;;;;;;;5081364;22;20077;-78
2021/06/23 06:59:31;;;;;;;15.13;11.57;;;;;;;;;;5037548;28;20121;-79
2021/06/23 07:01:59;;;;;;;13.82;11.55;;;;;;;;;;5036873;28;20057;-78
2021/06/23 07:04:26;;;;;;;12.98;11.45;;;;;;;;;;5032139;28;20103;-80
2021/06/23 07:06:53;;;;;;;15.35;12.18;;;;;;;;;;5035545;28;20053;-79
2021/06/23 07:09:20;;;;;;;13.57;10.35;;;;;;;;;;5034096;28;20046;-81
2021/06/23 07:11:47;;;;;;;11.23;9.98;;;;;;;;;;5046983;28;20090;-79
2021/06/23 07:14:15;;;;;;;11.20;8.82;;;;;;;;;;5053424;28;20128;-79
2021/06/23 07:16:42;;;;;;;12.25;10.98;;;;;;;;;;5055773;28;20128;-79
2021/06/23 07:19:10;;;;;;;12.50;10.93;;;;;;;;;;5056143;28;20049;-77
2021/06/23 07:21:36;;;;;;;10.88;9.77;;;;;;;;;;5051696;28;20099;-78
2021/06/23 07:24:03;;;;;;;10.50;9.30;;;;;;;;;;5054961;28;20423;-79
2021/06/23 07:26:31;;;;;;;10.88;9.38;;;;;;;;;;5055957;28;20076;-79
2021/06/23 07:29:00;;;;;;;9.80;8.43;;;;;;;;;;5054492;28;20126;-79
2021/06/23 07:31:36;;;;;;;11.57;9.23;;;;;;;;;;5053922;28;20052;-79
2021/06/23 07:34:16;;;;;;;9.07;7.80;;;;;;;;;;5055365;28;20052;-79
2021/06/23 07:36:47;;;;;;;7.97;6.43;;;;;;;;;;5054394;28;20464;-79
2021/06/23 07:39:16;;;;;;;8.77;6.50;;;;;;;;;;5057415;28;20048;-79
2021/06/23 07:41:46;;;;;;;9.63;8.20;;;;;;;;;;5063641;28;20056;-79
2021/06/23 07:44:16;;;;;;;9.77;7.83;;;;;;;;;;5063663;28;20052;-79
2021/06/23 07:46:50;;;;;;;9.18;8.10;;;;;;;;;;5063819;28;20053;-79
2021/06/23 07:49:17;;;;;;;8.10;7.18;;;;;;;;;;5059610;28;20049;-79
2021/06/23 07:51:54;;;;;;;8.77;7.70;;;;;;;;;;5054408;28;20044;-79
2021/06/23 07:54:29;;;;;;;9.40;7.10;;;;;;;;;;5054301;28;20053;-79
2021/06/23 08:02:51;;;;;;;9.70;7.85;;;;;;;;;;5044592;28;20064;-82
2021/06/23 08:10:53;;;;;;;9.05;7.93;;;;;;;;;;5032160;28;20144;-82
2021/06/23 08:13:22;;;;;;;7.57;6.78;;;;;;;;;;5042622;28;20548;-82
2021/06/23 08:15:52;;;;;;;11.35;6.90;;;;;;;;;;5039991;28;20049;-84
2021/06/23 08:18:26;;;;;;;7.97;7.03;;;;;;;;;;5036958;28;20072;-83
2021/06/23 08:20:53;;;;;;;7.40;6.25;;;;;;;;;;5039188;28;20050;-82
2021/06/23 08:23:21;;;;;;;7.53;5.63;;;;;;;;;;5040795;28;20049;-78
2021/06/23 08:25:48;;;;;;;10.02;7.78;;;;;;;;;;5042479;28;20049;-79
2021/06/23 08:28:14;;;;;;;8.02;5.68;;;;;;;;;;5042364;28;20437;-79
2021/06/23 08:30:41;;;;;;;7.30;5.85;;;;;;;;;;5042277;28;20079;-80
2021/06/23 08:33:08;;;;;;;5.88;4.93;;;;;;;;;;5042539;28;20053;-80
2021/06/23 08:35:35;;;;;;;6.88;5.10;;;;;;;;;;5044398;28;20042;-79
2021/06/23 08:38:02;;;;;;;7.47;6.55;;;;;;;;;;5042190;28;20176;-79
2021/06/23 08:40:31;;;;;;;7.57;6.68;;;;;;;;;;5040593;28;20054;-80
2021/06/23 08:42:58;;;;;;;6.50;4.72;;;;;;;;;;5040822;28;20042;-80
2021/06/23 08:45:25;;;;;;;5.82;4.40;;;;;;;;;;5040447;28;20053;-78
2021/06/23 08:47:51;;;;;;;5.95;4.95;;;;;;;;;;5040464;28;20068;-79
2021/06/23 08:50:20;;;;;;;7.05;5.00;;;;;;;;;;5041962;28;20057;-80
2021/06/23 08:52:47;;;;;;;6.32;5.15;;;;;;;;;;5044299;28;20175;-79
2021/06/23 08:55:19;;;;;;;8.88;6.82;;;;;;;;;;5045305;28;20060;-79
2021/06/23 08:57:48;;;;;;;7.53;5.57;;;;;;;;;;5039596;28;20092;-80
2021/06/23 09:00:16;;;;;;;5.82;5.15;;;;;;;;;;5033250;28;20046;-80
2021/06/23 09:02:44;;;;;;;5.35;4.35;;;;;;;;;;5021573;28;20050;-80
2021/06/23 09:05:13;;;;;;;7.80;6.82;;;;;;;;;;5021698;28;20423;-80
2021/06/23 09:07:43;;;;;;;6.35;5.35;;;;;;;;;;5021788;28;20050;-80
2021/06/23 09:10:37;;;;;;;6.13;5.53;;;;;;;;;;5021045;28;20050;-80
2021/06/23 09:13:21;;;;;;;6.13;5.53;;;;;;;;;;5039313;28;20050;-81
2021/06/23 09:15:51;;;;;;;5.97;4.90;;;;;;;;;;5040483;28;20050;-79
2021/06/23 09:18:20;;;;;;;7.20;5.50;;;;;;;;;;5040582;28;20049;-81
2021/06/23 09:20:50;;;;;;;14.57;13.07;;;;;;;;;;5039515;28;20099;-79
2021/06/23 09:23:17;;;;;;;8.35;6.82;;;;;;;;;;5039914;28;20049;-80
2021/06/23 09:25:45;;;;;;;6.90;5.90;;;;;;;;;;5039501;28;20053;-79
2021/06/23 09:28:17;;;;;;;7.40;5.30;;;;;;;;;;5038395;28;20112;-80
2021/06/23 09:30:47;;;;;;;6.15;4.60;;;;;;;;;;5039360;28;20041;-80
2021/06/23 09:33:19;;;;;;;6.07;4.90;;;;;;;;;;5038351;28;20497;-79
2021/06/23 09:35:48;;;;;;;6.53;5.28;;;;;;;;;;5042969;28;20037;-80
2021/06/23 09:38:43;;;;;;;8.18;5.13;;;;;;;;;;5045069;28;20096;-80
2021/06/23 09:41:36;;;;;;;7.47;5.35;;;;;;;;;;5005172;28;20046;-81
2021/06/23 09:44:05;;;;;;;8.15;6.90;;;;;;;;;;5030313;28;20077;-79
2021/06/23 09:46:35;;;;;;;7.00;5.68;;;;;;;;;;5039846;28;20049;-80
2021/06/23 09:49:06;;;;;;;7.15;5.72;;;;;;;;;;5039578;28;20050;-80
2021/06/23 09:51:49;;;;;;;6.18;5.57;;;;;;;;;;5039345;28;20045;-81
2021/06/23 09:54:18;;;;;;;8.05;5.47;;;;;;;;;;5038924;28;20041;-81
2021/06/23 09:56:46;;;;;;;5.60;5.00;;;;;;;;;;5044390;28;20122;-80
2021/06/23 09:59:26;;;;;;;6.00;4.57;;;;;;;;;;5042305;28;20580;-79
2021/06/23 10:01:55;;;;;;;5.57;4.70;;;;;;;;;;5040139;28;20060;-81
2021/06/23 10:04:22;;;;;;;5.20;4.22;;;;;;;;;;5039555;28;20076;-80
2021/06/23 10:06:50;;;;;;;6.70;4.90;;;;;;;;;;5038756;28;20052;-78
2021/06/23 10:09:22;;;;;;;6.95;4.97;;;;;;;;;;5038620;28;20586;-79
2021/06/23 10:11:51;;;;;;;5.80;4.57;;;;;;;;;;5052033;28;20509;-80
2021/06/23 10:14:19;;;;;;;5.40;4.55;;;;;;;;;;5058416;28;20049;-80
2021/06/23 10:16:47;;;;;;;5.93;3.97;;;;;;;;;;5058183;28;20041;-80
2021/06/23 10:19:16;;;;;;;5.03;4.15;;;;;;;;;;5059103;28;20045;-80
2021/06/23 10:21:43;;;;;;;8.50;7.22;;;;;;;;;;5059235;28;20044;-80
2021/06/23 10:24:15;;;;;;;5.80;4.20;;;;;;;;;;5052704;28;20042;-82
2021/06/23 10:26:47;;;;;;;4.32;3.50;;;;;;;;;;5041259;28;20057;-82
2021/06/23 10:29:16;;;;;;;6.15;3.85;;;;;;;;;;5024586;28;20124;-82
2021/06/23 10:31:43;;;;;;;4.30;3.65;;;;;;;;;;5023058;28;20172;-82
2021/06/23 10:34:10;;;;;;;5.00;3.80;;;;;;;;;;5019764;28;20088;-83
2021/06/23 10:36:43;;;;;;;6.28;4.85;;;;;;;;;;5020807;28;20499;-80
2021/06/23 10:39:16;;;;;;;4.85;3.75;;;;;;;;;;5022180;28;20053;-82
2021/06/23 10:41:53;;;;;;;4.90;3.60;;;;;;;;;;5022228;28;20042;-79
2021/06/23 10:44:42;;;;;;;4.97;3.40;;;;;;;;;;5018472;28;20057;-81
2021/06/23 10:47:30;;;;;;;6.65;4.75;;;;;;;;;;5015996;28;20046;-78
2021/06/23 10:51:00;;;;;;;4.90;4.03;;;;;;;;;;5021931;28;20041;-83
2021/06/23 10:53:47;;;;;;;4.75;3.60;;;;;;;;;;5038294;28;20054;-84
2021/06/23 10:59:42;;;;;;;24.38;10.63;;;;;;;;;;5038514;28;20052;-83
2021/06/23 11:02:11;;;;;;;6.72;5.10;;;;;;;;;;5039137;28;20045;-78
2021/06/23 11:05:10;;;;;;;22.85;13.40;;;;;;;;;;5037207;28;20049;-81
2021/06/23 11:07:41;;;;;;;10.27;6.50;;;;;;;;;;5036162;28;20077;-79
2021/06/23 11:10:30;;;;;;;8.48;5.35;;;;;;;;;;5036776;28;20056;-80
2021/06/23 11:13:02;;;;;;;9.73;6.50;;;;;;;;;;5035637;28;20055;-79
2021/06/23 11:15:44;;;;;;;9.52;5.60;;;;;;;;;;5043339;28;20537;-78
2021/06/23 11:18:35;;;;;;;7.68;5.47;;;;;;;;;;5041018;28;20049;-78
2021/06/23 11:21:15;;;;;;;6.57;5.18;;;;;;;;;;5039366;28;20064;-79
2021/06/23 11:23:48;;;;;;;6.50;5.03;;;;;;;;;;5042421;28;20479;-79
2021/06/23 11:27:05;;;;;;;7.35;5.55;;;;;;;;;;5033405;28;20045;-78
2021/06/23 11:29:43;;;;;;;9.23;5.25;;;;;;;;;;5028825;28;20465;-80
2021/06/23 11:32:43;;;;;;;6.72;5.00;;;;;;;;;;5031688;28;20552;-79
2021/06/23 11:35:27;;;;;;;7.20;5.25;;;;;;;;;;5030884;28;20056;-79
2021/06/23 11:37:54;;;;;;;6.03;4.75;;;;;;;;;;5039342;28;20049;-79
2021/06/23 11:40:24;;;;;;;7.53;4.60;;;;;;;;;;5048429;28;20100;-79
2021/06/23 11:42:51;;;;;;;6.50;5.32;;;;;;;;;;5033281;28;20056;-80
2021/06/23 11:45:21;;;;;;;6.30;5.30;;;;;;;;;;5035598;28;20107;-80
2021/06/23 11:47:48;;;;;;;7.40;5.00;;;;;;;;;;5034071;28;20053;-80
2021/06/23 11:50:16;;;;;;;7.60;5.70;;;;;;;;;;5035563;28;20050;-79
2021/06/23 11:52:43;;;;;;;7.85;5.70;;;;;;;;;;5032133;28;20049;-80
2021/06/23 11:55:23;;;;;;;5.68;5.07;;;;;;;;;;5037158;28;20099;-80
2021/06/23 11:57:50;;;;;;;;;;;;;;;;;;5037071;28;20049;-77
2021/06/23 12:00:19;;;;;;;5.82;4.80;;;;;;;;;;5036173;28;19975;-80
2021/06/23 12:02:47;;;;;;;5.60;4.60;;;;;;;;;;5035702;28;20107;-78
2021/06/23 12:05:14;;;;;;;5.60;4.97;;;;;;;;;;5037489;28;20061;-80
2021/06/23 12:07:59;;;;;;;5.75;4.53;;;;;;;;;;5036073;28;20095;-79
2021/06/23 12:10:35;;;;;;;5.55;4.53;;;;;;;;;;5029571;28;20072;-80
2021/06/23 12:19:47;;;;;;;5.63;4.57;;;;;;;;;;4995536;28;20060;-80
2021/06/23 12:29:01;;;;;;;4.90;4.40;;;;;;;;;;4907640;29;20052;-79
2021/06/23 12:42:31;;;;;;;8.20;7.40;;;;;;;;;;4917335;29;20158;-80
2021/06/23 12:48:12;;;;;;;6.22;5.63;;;;;;;;;;4913480;29;20561;-80
2021/06/23 12:50:43;;;;;;;;;;;;;;;;;;5016962;28;20077;-80
2021/06/23 12:53:16;;;;;;;6.30;5.30;;;;;;;;;;5030950;28;19964;-79
2021/06/23 12:58:56;;;;;;;6.30;5.70;;;;;;;;;;5057335;22;20045;-78
2021/06/23 13:01:24;;;;;;;7.53;6.70;;;;;;;;;;5061178;28;20056;-78
2021/06/23 13:03:51;;;;;;;6.75;5.80;;;;;;;;;;5056525;28;20118;-78
2021/06/23 13:06:18;;;;;;;6.43;5.10;;;;;;;;;;5046826;28;20569;-79
2021/06/23 13:08:45;;;;;;;6.68;5.63;;;;;;;;;;5055800;28;20052;-80
2021/06/23 13:11:13;;;;;;;6.13;5.32;;;;;;;;;;5054154;28;20072;-79
2021/06/23 13:13:40;;;;;;;6.20;4.57;;;;;;;;;;5060625;28;20048;-79
2021/06/23 13:16:09;;;;;;;6.53;4.95;;;;;;;;;;5068388;28;20053;-79
2021/06/23 13:18:38;;;;;;;5.50;4.90;;;;;;;;;;5064933;28;20045;-79
2021/06/23 13:21:05;;;;;;;7.00;4.72;;;;;;;;;;5061363;28;20048;-78
2021/06/23 13:23:32;;;;;;;7.68;5.18;;;;;;;;;;5069745;28;20056;-78
2021/06/23 13:25:58;;;;;;;6.68;5.03;;;;;;;;;;5065004;28;20041;-78
2021/06/23 13:28:26;;;;;;;9.57;4.53;;;;;;;;;;5061684;28;20049;-79
2021/06/23 13:30:53;;;;;;;8.02;4.57;;;;;;;;;;5062946;28;20045;-81
2021/06/23 13:36:02;;;;;;;6.65;5.10;;;;;;;;;;5062636;28;20052;-83
2021/06/23 13:38:30;;;;;;;6.57;5.10;;;;;;;;;;5057759;28;20048;-82
2021/06/23 13:40:59;;;;;;;7.80;6.18;;;;;;;;;;5061045;28;20049;-82
2021/06/23 13:43:27;;;;;;;7.20;4.63;;;;;;;;;;5059916;28;20544;-78
2021/06/23 13:45:54;;;;;;;6.70;5.60;;;;;;;;;;5052169;28;20095;-77
2021/06/23 13:48:21;;;;;;;7.40;5.30;;;;;;;;;;5052155;28;20045;-77
2021/06/23 13:50:48;;;;;;;6.22;4.93;;;;;;;;;;5051439;28;20119;-75
2021/06/23 13:53:17;;;;;;;5.40;4.60;;;;;;;;;;5053487;28;20041;-78
2021/06/23 13:55:44;;;;;;;5.85;4.70;;;;;;;;;;5054932;28;20106;-77
2021/06/23 13:58:12;;;;;;;5.00;4.50;;;;;;;;;;5053270;28;20048;-78
2021/06/23 14:00:41;;;;;;;5.85;4.70;;;;;;;;;;5052943;28;20087;-77
2021/06/23 14:03:09;;;;;;;6.35;5.10;;;;;;;;;;5051249;28;20056;-78
2021/06/23 14:05:38;;;;;;;6.40;5.15;;;;;;;;;;5051745;28;20041;-78
2021/06/23 14:08:06;;;;;;;6.93;4.63;;;;;;;;;;5051592;28;20037;-77
2021/06/23 14:10:35;;;;;;;5.38;4.40;;;;;;;;;;5052650;28;20049;-79
2021/06/23 14:13:03;;;;;;;5.93;4.47;;;;;;;;;;5053948;28;20662;-78
2021/06/23 14:15:34;;;;;;;6.68;5.00;;;;;;;;;;5055113;28;20126;-79
2021/06/23 14:18:00;;;;;;;6.18;5.00;;;;;;;;;;5053960;28;20064;-78
2021/06/23 14:20:29;;;;;;;5.10;4.57;;;;;;;;;;5051903;28;20087;-77
2021/06/23 14:22:56;;;;;;;5.75;4.70;;;;;;;;;;5054181;28;20041;-76
2021/06/23 14:25:23;;;;;;;4.97;4.28;;;;;;;;;;5054046;28;20049;-78
2021/06/23 14:27:52;;;;;;;4.95;4.25;;;;;;;;;;5052895;28;20049;-78
2021/06/23 14:30:22;;;;;;;5.60;4.47;;;;;;;;;;5054789;28;20056;-79
2021/06/23 14:32:49;;;;;;;5.32;4.50;;;;;;;;;;5054663;28;20151;-78
2021/06/23 14:35:18;;;;;;;6.05;5.32;;;;;;;;;;5058454;28;20460;-82
2021/06/23 14:37:44;;;;;;;7.72;5.13;;;;;;;;;;5058879;28;20103;-79
2021/06/23 14:40:12;;;;;;;8.20;6.30;;;;;;;;;;5057648;28;20048;-80
2021/06/23 14:42:39;;;;;;;5.55;4.60;;;;;;;;;;5056093;28;20053;-77
2021/06/23 14:45:08;;;;;;;5.18;4.55;;;;;;;;;;5056317;28;20045;-80
2021/06/23 14:47:35;;;;;;;5.80;5.00;;;;;;;;;;5055765;28;20060;-79
2021/06/23 14:50:03;;;;;;;7.05;5.43;;;;;;;;;;5057555;28;20045;-80
2021/06/23 14:52:30;;;;;;;5.55;4.80;;;;;;;;;;5055997;28;20049;-79
2021/06/23 14:54:58;;;;;;;6.40;5.22;;;;;;;;;;5055688;28;20052;-79
2021/06/23 14:57:25;;;;;;;5.53;4.65;;;;;;;;;;5055695;28;20084;-79
2021/06/23 14:59:52;;;;;;;6.40;5.80;;;;;;;;;;5055645;28;20055;-82
2021/06/23 15:02:21;;;;;;;5.00;4.35;;;;;;;;;;5053419;28;20124;-79
2021/06/23 15:04:47;;;;;;;5.90;4.40;;;;;;;;;;5053839;28;20074;-79
2021/06/23 15:07:14;;;;;;;4.68;4.18;;;;;;;;;;5053733;28;20045;-80
2021/06/23 15:09:41;;;;;;;5.80;4.53;;;;;;;;;;5053495;28;20118;-80
2021/06/23 15:12:09;;;;;;;7.00;6.30;;;;;;;;;;5053396;28;20556;-79
2021/06/23 15:14:36;;;;;;;6.28;4.40;;;;;;;;;;5054078;28;20049;-79
2021/06/23 15:17:04;;;;;;;6.13;4.38;;;;;;;;;;5053944;28;20041;-80
2021/06/23 15:19:32;;;;;;;5.28;4.32;;;;;;;;;;5054513;28;20045;-79
2021/06/23 15:21:59;;;;;;;4.63;3.90;;;;;;;;;;5054054;28;20041;-80
2021/06/23 15:24:26;;;;;;;7.47;4.20;;;;;;;;;;5054096;28;20041;-80
2021/06/23 15:26:52;;;;;;;4.82;3.97;;;;;;;;;;5053917;28;20049;-80
2021/06/23 15:29:19;;;;;;;5.25;3.90;;;;;;;;;;5061551;28;20441;-80
2021/06/23 15:31:46;;;;;;;4.95;4.40;;;;;;;;;;5061107;28;20064;-80
2021/06/23 15:34:13;;;;;;;7.03;4.30;;;;;;;;;;5058425;28;20456;-79
2021/06/23 15:36:42;;;;;;;6.55;4.40;;;;;;;;;;5057794;28;20049;-80